Mechanicsburg, Ohio
Current Conditions -  °F | °C
As of 8:35 PM on Saturday 25 Oct 2014 (Local Time) from KUYF Reporting Station
Clear Clear  
Wind Chill: 61°   Ceiling: Unl
Heat Index: 61°   Visibility: 10mi
Dew Point: 43°   Wind: 8mph
Humidity: 52%   Direction: 290°WNW
Pressure: 29.87"   Gusts: NA
Location:  40.07°N, 83.56°W
Report Text: KUYF 260035Z AUTO 29007KT 10SM CLR 16/06 A2987 RMK AO2
Loading
Personal Weather Stations






























Interactive Weather Map
Tropical Storm Tracking
New forecast layout! Learn more

10-Day Weather Forecast

Advertisements
Track Severe Weather on mobile